KMTO/MTO METAR and TAF weather

Enter ICAO airport designator
Station Type Date Time Source
KMTO METAR 2019/11/14 03:53 UTC NOAA

KMTO 140353Z AUTO 18009KT 10SM SCT095 M03/M08 A3011 RMK AO2 SLP206 T10281083


Station Type Date Time Source
KMTO Decoded METAR 2019/11/14 03:53 UTC NOAA

MATTOON/CHARLESTON COLES CO, IL, United States (KMTO) 39-28N 88-16W 214M
Nov 13, 2019 - 10:53 PM EST / 2019.11.14 0353 UTC
Wind: from the S (180 degrees) at 10 MPH (9 KT):0
Visibility: 10 mile(s):0
Sky conditions: partly cloudy
Temperature: 27.0 F (-2.8 C)
Windchill: 17 F (-8 C):1
Dew Point: 17.1 F (-8.3 C)
Relative Humidity: 65%
Pressure (altimeter): 30.11 in. Hg (1019 hPa)
ob: KMTO 140353Z AUTO 18009KT 10SM SCT095 M03/M08 A3011 RMK AO2 SLP206 T10281083
cycle: 4

Station Type Date Time Source
KMTO TAF UTC NOAA

Error!

Example: see airport list